Time;durP1;ratioP1;P1;durP2;ratioP2;P2;SDS_P1;SDS_P2;PMS_P1;PMS_P2;Temp;Humidity;BMP_temperature;BMP_pressure;BME280_temperature;BME280_humidity;BME280_pressure;Samples;Min_cycle;Max_cycle;Signal;HPM_P1;HPM_P2
2023/04/18 00:00:48;;;;;;;17.10;8.40;;;;;;;8.29;100.00;98816.00;105307;1256;97980;-69
2023/04/18 00:03:15;;;;;;;12.70;7.50;;;;;;;8.29;100.00;98813.73;104862;1266;98782;-69
2023/04/18 00:05:46;;;;;;;15.60;8.40;;;;;;;8.29;100.00;98818.36;104939;1261;107546;-72
2023/04/18 00:08:14;;;;;;;11.30;6.30;;;;;;;8.28;100.00;98821.42;105138;1252;98776;-74
2023/04/18 00:10:41;;;;;;;10.20;5.80;;;;;;;8.27;100.00;98820.79;105294;1260;97973;-69
2023/04/18 00:13:09;;;;;;;9.40;5.40;;;;;;;8.26;100.00;98823.33;105318;1256;99189;-69
2023/04/18 00:15:36;;;;;;;13.90;7.30;;;;;;;8.27;100.00;98820.35;105241;1266;97925;-68
2023/04/18 00:18:04;;;;;;;8.60;5.30;;;;;;;8.27;100.00;98823.42;105179;1260;98681;-68
2023/04/18 00:20:32;;;;;;;13.70;4.90;;;;;;;8.25;100.00;98822.95;104970;1264;98000;-69
2023/04/18 00:22:59;;;;;;;9.80;5.40;;;;;;;8.23;100.00;98819.98;105269;1257;97925;-69
2023/04/18 00:25:26;;;;;;;12.80;7.10;;;;;;;8.22;100.00;98823.77;105260;1257;97909;-69
2023/04/18 00:27:53;;;;;;;15.00;7.20;;;;;;;8.21;100.00;98822.63;105229;1269;101458;-69
2023/04/18 00:30:20;;;;;;;14.10;7.70;;;;;;;8.20;100.00;98820.29;105144;1256;97883;-69
2023/04/18 00:32:47;;;;;;;10.90;6.00;;;;;;;8.23;100.00;98821.17;105159;1275;97942;-69
2023/04/18 00:35:14;;;;;;;11.30;6.60;;;;;;;8.24;100.00;98822.98;105261;1257;97919;-69
2023/04/18 00:37:41;;;;;;;9.00;5.50;;;;;;;8.25;100.00;98824.10;105283;1252;98393;-68
2023/04/18 00:40:09;;;;;;;8.80;4.80;;;;;;;8.24;100.00;98825.91;105266;1267;97931;-68
2023/04/18 00:42:36;;;;;;;9.30;5.20;;;;;;;8.24;100.00;98818.44;105146;1256;97912;-68
2023/04/18 00:45:04;;;;;;;9.30;5.00;;;;;;;8.24;100.00;98818.02;105088;1257;98025;-68
2023/04/18 00:47:31;;;;;;;7.60;4.20;;;;;;;8.23;100.00;98812.98;105223;1256;111119;-68
2023/04/18 00:49:59;;;;;;;11.00;6.60;;;;;;;8.22;100.00;98811.80;105012;1258;99183;-68
2023/04/18 00:52:26;;;;;;;7.40;4.70;;;;;;;8.22;100.00;98803.39;105224;1254;97977;-68
2023/04/18 00:54:54;;;;;;;9.20;5.10;;;;;;;8.22;100.00;98799.46;105144;1267;97928;-69
2023/04/18 00:57:21;;;;;;;9.50;5.90;;;;;;;8.22;100.00;98800.12;105318;1256;99075;-68
2023/04/18 00:59:48;;;;;;;12.30;3.90;;;;;;;8.23;100.00;98799.66;105258;1256;97970;-67
2023/04/18 01:02:16;;;;;;;7.70;4.00;;;;;;;8.24;100.00;98795.29;105259;1269;97966;-70
2023/04/18 01:04:43;;;;;;;5.50;3.10;;;;;;;8.22;100.00;98796.02;105071;1253;99551;-69
2023/04/18 01:07:11;;;;;;;10.40;4.70;;;;;;;8.20;100.00;98792.27;105291;1256;97876;-69
2023/04/18 01:09:40;;;;;;;11.50;4.90;;;;;;;8.20;100.00;98788.46;105370;1257;97966;-68
2023/04/18 01:12:07;;;;;;;10.40;4.10;;;;;;;8.19;100.00;98791.05;104998;1260;111871;-68
2023/04/18 01:14:34;;;;;;;9.10;5.10;;;;;;;8.19;100.00;98790.82;105094;1267;98486;-68
2023/04/18 01:17:01;;;;;;;6.70;4.00;;;;;;;8.19;100.00;98791.42;105059;1253;97970;-68
2023/04/18 01:19:28;;;;;;;8.00;4.50;;;;;;;8.20;100.00;98793.44;105057;1256;97996;-68
2023/04/18 01:21:56;;;;;;;8.40;5.10;;;;;;;8.18;100.00;98793.73;105249;1256;99078;-68
2023/04/18 01:24:25;;;;;;;6.20;4.50;;;;;;;8.19;100.00;98798.14;105018;1256;98608;-67
2023/04/18 01:26:52;;;;;;;8.70;4.70;;;;;;;8.19;100.00;98797.98;105045;1265;99283;-69
2023/04/18 01:29:19;;;;;;;6.90;3.90;;;;;;;8.19;100.00;98795.36;105088;1258;98781;-69
2023/04/18 01:31:47;;;;;;;12.80;6.00;;;;;;;8.19;100.00;98800.38;105232;1264;97918;-68
2023/04/18 01:34:16;;;;;;;9.30;4.70;;;;;;;8.19;100.00;98796.11;105021;1261;98501;-68
2023/04/18 01:36:45;;;;;;;5.40;3.50;;;;;;;8.19;100.00;98795.86;105249;1256;112197;-67
2023/04/18 01:39:12;;;;;;;10.50;5.50;;;;;;;8.15;100.00;98789.98;104913;1264;98238;-67
2023/04/18 01:41:41;;;;;;;6.90;3.90;;;;;;;8.16;100.00;98793.05;105261;1256;108633;-67
2023/04/18 01:44:08;;;;;;;6.40;4.50;;;;;;;8.15;100.00;98793.70;104981;1260;98079;-67
2023/04/18 01:46:35;;;;;;;8.90;4.40;;;;;;;8.14;100.00;98787.83;105267;1259;97893;-67
2023/04/18 01:49:02;;;;;;;10.90;4.90;;;;;;;8.14;100.00;98788.64;105311;1256;99192;-67
2023/04/18 01:51:30;;;;;;;8.40;4.10;;;;;;;8.14;100.00;98787.12;105246;1264;97917;-68
2023/04/18 01:53:57;;;;;;;9.60;5.50;;;;;;;8.13;100.00;98785.71;105273;1256;99223;-67
2023/04/18 01:56:24;;;;;;;6.10;3.70;;;;;;;8.12;100.00;98783.15;105277;1257;97905;-68
2023/04/18 01:58:51;;;;;;;7.20;4.40;;;;;;;8.12;100.00;98789.27;105290;1256;97942;-67
2023/04/18 02:01:18;;;;;;;7.60;5.00;;;;;;;8.13;100.00;98792.94;105262;1267;98703;-67
2023/04/18 02:03:46;;;;;;;8.10;4.90;;;;;;;8.14;100.00;98791.64;105257;1257;98900;-67
2023/04/18 02:06:14;;;;;;;8.10;4.80;;;;;;;8.16;100.00;98795.77;105079;1256;97900;-67
2023/04/18 02:08:41;;;;;;;6.00;4.00;;;;;;;8.18;100.00;98792.36;105188;1256;98837;-67
2023/04/18 02:11:08;;;;;;;6.90;4.10;;;;;;;8.20;100.00;98788.90;105234;1266;97890;-67
2023/04/18 02:13:35;;;;;;;9.00;5.20;;;;;;;8.20;100.00;98787.48;105201;1267;98824;-67
2023/04/18 02:16:02;;;;;;;9.00;4.80;;;;;;;8.21;100.00;98784.95;105263;1269;97956;-67
2023/04/18 02:18:33;;;;;;;9.10;5.60;;;;;;;8.21;100.00;98783.20;105158;1256;97883;-67
2023/04/18 02:21:00;;;;;;;9.80;6.60;;;;;;;8.23;100.00;98785.64;105048;1256;97877;-67
2023/04/18 02:23:28;;;;;;;11.30;7.50;;;;;;;8.23;100.00;98784.81;105223;1256;99743;-66
2023/04/18 02:25:55;;;;;;;11.10;6.90;;;;;;;8.24;100.00;98781.05;105044;1253;97960;-66
2023/04/18 02:28:22;;;;;;;12.80;6.90;;;;;;;8.25;100.00;98786.14;105229;1256;98008;-67
2023/04/18 02:30:49;;;;;;;8.50;5.20;;;;;;;8.25;100.00;98787.19;105250;1267;98843;-67
2023/04/18 02:33:16;;;;;;;10.20;6.20;;;;;;;8.24;100.00;98786.16;105258;1264;98170;-67
2023/04/18 02:35:43;;;;;;;13.70;8.00;;;;;;;8.23;100.00;98785.58;105093;1254;97874;-67
2023/04/18 02:38:12;;;;;;;14.60;6.60;;;;;;;8.22;100.00;98785.60;105206;1275;97946;-67
2023/04/18 02:40:39;;;;;;;12.30;7.50;;;;;;;8.22;100.00;98792.37;105153;1256;97835;-67
2023/04/18 02:43:07;;;;;;;9.50;5.60;;;;;;;8.22;100.00;98795.53;105243;1267;97945;-67
2023/04/18 02:45:34;;;;;;;13.60;7.70;;;;;;;8.23;100.00;98799.11;105170;1256;97893;-67
2023/04/18 02:48:02;;;;;;;10.50;7.10;;;;;;;8.26;100.00;98797.38;105067;1256;99131;-67
2023/04/18 02:50:29;;;;;;;10.70;6.70;;;;;;;8.27;100.00;98796.38;105155;1253;97915;-67
2023/04/18 02:52:56;;;;;;;11.70;6.00;;;;;;;8.28;100.00;98799.64;105459;1259;98218;-68
2023/04/18 02:55:25;;;;;;;8.10;4.90;;;;;;;8.28;100.00;98801.98;105251;1257;97924;-65
2023/04/18 02:57:52;;;;;;;9.80;6.80;;;;;;;8.28;100.00;98799.31;105250;1256;97977;-66
2023/04/18 03:00:20;;;;;;;7.60;5.00;;;;;;;8.30;100.00;98807.70;105251;1269;98373;-66
2023/04/18 03:02:47;;;;;;;7.70;5.50;;;;;;;8.31;100.00;98803.16;105027;1257;98517;-66
2023/04/18 03:05:14;;;;;;;6.90;4.80;;;;;;;8.32;100.00;98804.55;105280;1255;97900;-67
2023/04/18 03:07:41;;;;;;;9.60;4.30;;;;;;;8.32;100.00;98802.27;105099;1259;97989;-66
2023/04/18 03:10:09;;;;;;;5.00;3.20;;;;;;;8.32;100.00;98804.83;105246;1271;98732;-66
2023/04/18 03:12:36;;;;;;;9.40;6.00;;;;;;;8.32;100.00;98805.92;105294;1254;98406;-66
2023/04/18 03:15:04;;;;;;;10.60;5.60;;;;;;;8.32;100.00;98806.68;105222;1257;99190;-66
2023/04/18 03:17:31;;;;;;;12.40;5.70;;;;;;;8.31;100.00;98803.86;105079;1256;97975;-66
2023/04/18 03:19:58;;;;;;;12.20;6.40;;;;;;;8.31;100.00;98806.52;105184;1256;99182;-66
2023/04/18 03:22:25;;;;;;;8.30;4.80;;;;;;;8.33;100.00;98804.38;105099;1252;97916;-65
2023/04/18 03:24:52;;;;;;;8.00;4.80;;;;;;;8.32;100.00;98800.80;105227;1256;97900;-65
2023/04/18 03:27:19;;;;;;;9.70;5.70;;;;;;;8.32;100.00;98807.90;105172;1256;97976;-67
2023/04/18 03:29:46;;;;;;;12.40;7.40;;;;;;;8.32;100.00;98805.81;105114;1258;97823;-66
2023/04/18 03:32:13;;;;;;;11.30;7.00;;;;;;;8.32;100.00;98803.69;105325;1256;98183;-66
2023/04/18 03:34:40;;;;;;;10.40;7.10;;;;;;;8.32;100.00;98808.17;105298;1267;98486;-66
2023/04/18 03:37:08;;;;;;;11.60;7.10;;;;;;;8.30;100.00;98809.06;105141;1253;97995;-66
2023/04/18 03:39:35;;;;;;;11.10;6.20;;;;;;;8.29;100.00;98814.70;105253;1256;99219;-66
2023/04/18 03:42:02;;;;;;;11.80;7.00;;;;;;;8.28;100.00;98817.66;105285;1264;98030;-65
2023/04/18 03:44:30;;;;;;;7.20;5.00;;;;;;;8.28;100.00;98817.55;105115;1253;97982;-65
2023/04/18 03:46:57;;;;;;;9.50;6.10;;;;;;;8.27;100.00;98813.48;105270;1254;98007;-65
2023/04/18 03:49:24;;;;;;;11.20;6.00;;;;;;;8.26;100.00;98811.48;105164;1271;99228;-66
2023/04/18 03:51:51;;;;;;;6.60;4.10;;;;;;;8.26;100.00;98807.58;105168;1256;97898;-65
2023/04/18 03:54:18;;;;;;;11.00;6.40;;;;;;;8.27;100.00;98815.77;105111;1253;99214;-66
2023/04/18 03:56:46;;;;;;;9.10;5.60;;;;;;;8.27;100.00;98818.12;105238;1257;97970;-66
2023/04/18 03:59:14;;;;;;;11.50;6.10;;;;;;;8.27;100.00;98818.61;105305;1258;97948;-66
2023/04/18 04:01:41;;;;;;;9.40;5.80;;;;;;;8.28;100.00;98820.72;105263;1256;99078;-66
2023/04/18 04:04:10;;;;;;;11.00;7.00;;;;;;;8.28;100.00;98821.27;105235;1260;98008;-66
2023/04/18 04:06:38;;;;;;;12.00;6.50;;;;;;;8.28;100.00;98818.97;104983;1261;107281;-66
2023/04/18 04:09:05;;;;;;;9.30;6.10;;;;;;;8.28;100.00;98823.56;105078;1256;97980;-66
2023/04/18 04:11:32;;;;;;;9.20;4.80;;;;;;;8.28;100.00;98826.40;105257;1256;98100;-67
2023/04/18 04:13:59;;;;;;;8.00;5.00;;;;;;;8.28;100.00;98825.44;105073;1267;97927;-67
2023/04/18 04:16:27;;;;;;;8.10;5.00;;;;;;;8.28;100.00;98831.05;105329;1275;98845;-64
2023/04/18 04:18:54;;;;;;;11.70;6.90;;;;;;;8.28;100.00;98832.79;105213;1256;98415;-65
2023/04/18 04:21:21;;;;;;;8.30;4.80;;;;;;;8.30;100.00;98839.38;105266;1256;98686;-64
2023/04/18 04:23:48;;;;;;;13.20;7.30;;;;;;;8.28;100.00;98836.55;105196;1269;97977;-64
2023/04/18 04:26:16;;;;;;;9.10;5.50;;;;;;;8.31;100.00;98833.52;105192;1256;99188;-64
2023/04/18 04:28:45;;;;;;;11.50;6.30;;;;;;;8.31;100.00;98841.77;105245;1254;97886;-64
2023/04/18 04:31:12;;;;;;;8.90;6.00;;;;;;;8.32;100.00;98838.80;105231;1256;97964;-65
2023/04/18 04:33:39;;;;;;;10.70;5.50;;;;;;;8.34;100.00;98844.40;105162;1254;97905;-65
2023/04/18 04:36:08;;;;;;;12.10;7.10;;;;;;;8.35;100.00;98847.10;105260;1256;97902;-65
2023/04/18 04:38:37;;;;;;;12.90;7.20;;;;;;;8.36;100.00;98853.81;105155;1256;112150;-64
2023/04/18 04:41:06;;;;;;;14.10;8.00;;;;;;;8.39;100.00;98854.27;104882;1260;99422;-65
2023/04/18 04:43:33;;;;;;;13.00;7.70;;;;;;;8.40;100.00;98853.52;105117;1254;107508;-65
2023/04/18 04:46:06;;;;;;;13.50;8.00;;;;;;;8.40;100.00;98855.17;105067;1267;97982;-65
2023/04/18 04:48:33;;;;;;;11.40;5.90;;;;;;;8.41;100.00;98858.45;105089;1256;99339;-65
2023/04/18 04:51:01;;;;;;;10.90;6.00;;;;;;;8.42;100.00;98864.61;105217;1256;111719;-64
2023/04/18 04:53:31;;;;;;;11.10;6.70;;;;;;;8.44;100.00;98864.92;105162;1253;97968;-65
2023/04/18 04:55:58;;;;;;;12.00;6.70;;;;;;;8.44;100.00;98862.72;105262;1275;107682;-66
2023/04/18 04:58:27;;;;;;;12.10;8.20;;;;;;;8.46;100.00;98865.71;105120;1256;97902;-65
2023/04/18 05:00:54;;;;;;;11.90;6.30;;;;;;;8.48;100.00;98869.02;105093;1257;98416;-64
2023/04/18 05:03:21;;;;;;;11.40;7.80;;;;;;;8.48;100.00;98875.62;105226;1252;97950;-66
2023/04/18 05:05:49;;;;;;;13.00;7.00;;;;;;;8.53;100.00;98884.19;105146;1256;97914;-65
2023/04/18 05:08:16;;;;;;;13.90;7.40;;;;;;;8.55;100.00;98883.02;105204;1266;97932;-65
2023/04/18 05:10:44;;;;;;;9.60;6.00;;;;;;;8.57;100.00;98885.40;105200;1253;99196;-64
2023/04/18 05:13:12;;;;;;;11.30;7.10;;;;;;;8.60;100.00;98883.79;104881;1261;98345;-64
2023/04/18 05:15:39;;;;;;;12.00;6.60;;;;;;;8.63;100.00;98881.06;105288;1254;111253;-64
2023/04/18 05:18:07;;;;;;;12.90;6.90;;;;;;;8.66;100.00;98884.46;105312;1254;98001;-64
2023/04/18 05:20:34;;;;;;;16.70;6.70;;;;;;;8.68;100.00;98884.98;105218;1258;108542;-64
2023/04/18 05:23:02;;;;;;;14.40;5.70;;;;;;;8.72;100.00;98889.47;105057;1255;97947;-64
2023/04/18 05:25:30;;;;;;;10.40;6.30;;;;;;;8.73;100.00;98892.73;105001;1255;98791;-64
2023/04/18 05:28:00;;;;;;;12.90;8.10;;;;;;;8.77;99.99;98901.30;105098;1256;112493;-65
2023/04/18 05:30:30;;;;;;;13.20;7.20;;;;;;;8.81;99.96;98896.13;104740;1259;99276;-63
2023/04/18 05:32:59;;;;;;;7.50;4.70;;;;;;;8.82;99.83;98910.02;105170;1268;108994;-64
2023/04/18 05:35:35;;;;;;;13.80;7.90;;;;;;;8.84;99.64;98909.95;105053;1258;97977;-66
2023/04/18 05:38:07;;;;;;;12.50;6.80;;;;;;;8.87;99.62;98912.64;105209;1256;98350;-64
2023/04/18 05:40:34;;;;;;;10.00;5.90;;;;;;;8.87;99.41;98916.79;104974;1256;97898;-64
2023/04/18 05:43:01;;;;;;;12.70;7.00;;;;;;;8.86;98.87;98917.73;104923;1267;98034;-64
2023/04/18 05:45:28;;;;;;;12.90;6.10;;;;;;;8.89;99.28;98918.95;105009;1254;97968;-64
2023/04/18 05:47:56;;;;;;;7.90;5.40;;;;;;;8.92;98.79;98921.15;104850;1267;97867;-64
2023/04/18 05:50:23;;;;;;;11.30;7.80;;;;;;;8.93;98.11;98929.06;104818;1254;97880;-64
2023/04/18 05:52:50;;;;;;;14.00;7.20;;;;;;;8.96;98.25;98924.05;104975;1256;99186;-64
2023/04/18 05:55:17;;;;;;;12.90;8.30;;;;;;;8.98;98.21;98928.66;104881;1257;97899;-64
2023/04/18 05:57:44;;;;;;;10.50;7.20;;;;;;;9.01;97.47;98928.29;104818;1256;99202;-64
2023/04/18 06:00:12;;;;;;;8.40;5.60;;;;;;;9.01;96.58;98926.04;105031;1253;97897;-64
2023/04/18 06:02:39;;;;;;;10.00;5.10;;;;;;;9.02;96.37;98931.23;105030;1258;98002;-65
2023/04/18 06:05:07;;;;;;;11.30;6.70;;;;;;;9.02;96.49;98926.36;105049;1256;97877;-65
2023/04/18 06:07:35;;;;;;;9.70;5.70;;;;;;;9.03;96.23;98928.31;104904;1256;97892;-64
2023/04/18 06:10:04;;;;;;;12.10;7.20;;;;;;;9.07;96.07;98922.89;104929;1271;97889;-65
2023/04/18 06:12:31;;;;;;;9.60;5.80;;;;;;;9.11;95.60;98929.33;104820;1256;101513;-65
2023/04/18 06:14:58;;;;;;;10.40;6.60;;;;;;;9.17;95.36;98923.41;104977;1256;97890;-65
2023/04/18 06:17:26;;;;;;;12.10;6.80;;;;;;;9.21;95.20;98921.52;105024;1269;97889;-65
2023/04/18 06:19:53;;;;;;;13.10;7.00;;;;;;;9.33;95.40;98921.45;104935;1253;97983;-65
2023/04/18 06:22:20;;;;;;;36.50;5.90;;;;;;;9.42;94.03;98928.41;105215;1269;97893;-65
2023/04/18 06:24:47;;;;;;;11.90;7.00;;;;;;;9.46;93.41;98933.21;105012;1259;97988;-65
2023/04/18 06:27:14;;;;;;;12.70;6.80;;;;;;;9.53;93.49;98933.76;105031;1256;97904;-65
2023/04/18 06:29:56;;;;;;;13.70;8.30;;;;;;;9.57;92.56;98938.13;104848;1259;112342;-65
2023/04/18 06:32:24;;;;;;;9.20;6.50;;;;;;;9.60;92.09;98940.30;105209;1257;97902;-65
2023/04/18 06:34:51;;;;;;;8.90;5.40;;;;;;;9.63;91.56;98944.64;105252;1256;98782;-65
2023/04/18 06:37:19;;;;;;;10.60;6.70;;;;;;;9.63;91.34;98947.92;105242;1252;97908;-65
2023/04/18 06:39:46;;;;;;;12.20;7.20;;;;;;;9.63;90.63;98951.44;105179;1256;98383;-65
2023/04/18 06:42:14;;;;;;;11.40;6.90;;;;;;;9.60;89.79;98951.27;105013;1257;97880;-65
2023/04/18 06:44:42;;;;;;;8.30;5.20;;;;;;;9.53;89.46;98952.91;105225;1256;99189;-65
2023/04/18 06:47:09;;;;;;;10.70;7.90;;;;;;;9.48;89.25;98954.47;105068;1257;107571;-65
2023/04/18 06:49:37;;;;;;;10.40;7.00;;;;;;;9.48;89.59;98961.23;105205;1258;97906;-65
2023/04/18 06:52:04;;;;;;;10.60;6.40;;;;;;;9.48;89.60;98963.48;105166;1254;97939;-66
2023/04/18 06:54:31;;;;;;;11.00;6.70;;;;;;;9.44;89.04;98971.50;105193;1256;97967;-71
2023/04/18 06:56:59;;;;;;;10.20;6.40;;;;;;;9.39;89.46;98976.64;105088;1256;98315;-67
2023/04/18 06:59:26;;;;;;;10.00;4.50;;;;;;;9.40;89.46;98978.60;104782;1253;517262;-66
2023/04/18 07:01:53;;;;;;;8.20;5.90;;;;;;;9.40;89.32;98981.23;105336;1256;97889;-65
2023/04/18 07:04:20;;;;;;;11.50;7.00;;;;;;;9.40;88.98;98987.02;105218;1256;99196;-65
2023/04/18 07:06:47;;;;;;;8.80;5.70;;;;;;;9.44;89.38;98985.71;105224;1256;97854;-65
2023/04/18 07:09:14;;;;;;;14.10;8.30;;;;;;;9.46;89.33;98983.87;105229;1256;97863;-66
2023/04/18 07:11:42;;;;;;;11.10;7.00;;;;;;;9.49;88.89;98979.83;105173;1253;97944;-65
2023/04/18 07:14:10;;;;;;;9.90;7.30;;;;;;;9.56;89.26;98983.28;105242;1256;97964;-66
2023/04/18 07:16:38;;;;;;;9.80;5.80;;;;;;;9.65;88.82;98976.39;105282;1256;97870;-66
2023/04/18 07:19:05;;;;;;;9.10;5.80;;;;;;;9.70;87.93;98985.85;105238;1258;97942;-66
2023/04/18 07:21:32;;;;;;;8.70;5.30;;;;;;;9.70;86.89;98984.54;105323;1256;98397;-66
2023/04/18 07:24:00;;;;;;;10.00;5.40;;;;;;;9.75;86.76;98988.77;105195;1257;97909;-66
2023/04/18 07:26:27;;;;;;;8.30;5.00;;;;;;;9.86;85.99;98984.58;105261;1256;97902;-66
2023/04/18 07:28:54;;;;;;;13.20;8.10;;;;;;;9.94;85.73;98988.54;105193;1253;97968;-66
2023/04/18 07:31:21;;;;;;;10.10;6.20;;;;;;;10.04;85.78;98987.61;105240;1267;98512;-66
2023/04/18 07:33:48;;;;;;;10.60;6.20;;;;;;;10.11;84.51;98983.32;105102;1268;99202;-66
2023/04/18 07:36:16;;;;;;;13.70;7.30;;;;;;;10.15;83.83;98982.92;105207;1256;97909;-66
2023/04/18 07:38:43;;;;;;;10.40;7.30;;;;;;;10.24;82.94;98986.52;105023;1259;98101;-66
2023/04/18 07:41:11;;;;;;;11.00;6.40;;;;;;;10.37;83.23;98990.33;105310;1253;97996;-67
2023/04/18 07:43:39;;;;;;;12.20;7.10;;;;;;;10.54;81.56;98992.00;105316;1266;99218;-67
2023/04/18 07:46:06;;;;;;;10.20;6.00;;;;;;;10.60;81.62;98994.84;105277;1266;99179;-66
2023/04/18 07:48:34;;;;;;;11.00;5.40;;;;;;;10.62;79.68;98995.73;105028;1257;99202;-65
2023/04/18 07:51:01;;;;;;;8.40;5.60;;;;;;;10.62;79.48;98992.71;105214;1256;97978;-65
2023/04/18 07:53:29;;;;;;;8.70;4.90;;;;;;;10.70;79.14;98997.33;105270;1256;99201;-65
2023/04/18 07:55:56;;;;;;;8.70;5.30;;;;;;;10.66;78.04;98995.42;105281;1257;98102;-65
2023/04/18 07:58:23;;;;;;;8.90;5.10;;;;;;;10.62;78.32;99003.73;105265;1267;97890;-65
2023/04/18 08:00:51;;;;;;;8.20;6.10;;;;;;;10.73;78.81;99002.75;105277;1256;97831;-65
2023/04/18 08:03:18;;;;;;;9.10;5.70;;;;;;;10.81;79.00;99004.92;105178;1253;99259;-66
2023/04/18 08:05:45;;;;;;;8.90;5.60;;;;;;;10.90;78.45;99007.27;105264;1256;97902;-66
2023/04/18 08:08:12;;;;;;;6.60;4.20;;;;;;;11.01;77.32;99005.93;105223;1256;97880;-66
2023/04/18 08:10:40;;;;;;;15.20;7.30;;;;;;;10.99;76.44;99007.46;105222;1267;98377;-65
2023/04/18 08:13:07;;;;;;;10.30;7.00;;;;;;;10.95;77.22;99009.45;105166;1267;97885;-65
2023/04/18 08:15:34;;;;;;;10.70;6.20;;;;;;;10.94;77.29;99006.31;105023;1253;97951;-67
2023/04/18 08:18:01;;;;;;;11.70;7.20;;;;;;;10.98;77.48;99010.06;105072;1256;97911;-67
2023/04/18 08:20:29;;;;;;;8.10;5.30;;;;;;;11.11;77.80;99011.19;105390;1259;97999;-65
2023/04/18 08:22:56;;;;;;;9.80;5.30;;;;;;;11.22;76.82;99006.11;105324;1256;99894;-67
2023/04/18 08:25:35;;;;;;;10.70;6.80;;;;;;;11.40;76.10;99007.60;105109;1257;98262;-66
2023/04/18 08:28:02;;;;;;;12.10;5.90;;;;;;;11.55;75.61;99013.00;105113;1258;98207;-67
2023/04/18 08:30:30;;;;;;;10.20;6.30;;;;;;;11.57;75.53;99012.06;105238;1256;112259;-66
2023/04/18 08:32:59;;;;;;;12.00;7.30;;;;;;;11.66;74.88;99010.81;105214;1258;99076;-66
2023/04/18 08:35:26;;;;;;;12.90;7.30;;;;;;;11.85;74.67;99015.17;105044;1261;108285;-66
2023/04/18 08:37:53;;;;;;;6.80;4.90;;;;;;;12.07;72.86;99007.88;105235;1253;98121;-66
2023/04/18 08:40:21;;;;;;;8.60;5.70;;;;;;;12.26;72.41;99013.77;105182;1256;97935;-66
2023/04/18 08:42:50;;;;;;;9.20;6.60;;;;;;;12.49;72.45;99015.80;105255;1267;98687;-66
2023/04/18 08:45:18;;;;;;;12.20;6.60;;;;;;;12.78;71.60;99015.70;105236;1256;98180;-66
2023/04/18 08:47:45;;;;;;;8.40;5.80;;;;;;;12.96;70.21;99015.28;105164;1253;108569;-66
2023/04/18 08:50:13;;;;;;;7.80;5.40;;;;;;;13.11;69.17;99017.08;105129;1263;98002;-66
2023/04/18 08:52:47;;;;;;;7.20;5.00;;;;;;;13.09;67.85;99014.45;105252;1258;98006;-66
2023/04/18 08:55:15;;;;;;;10.70;6.80;;;;;;;12.94;68.09;99016.86;105225;1267;112318;-66
2023/04/18 08:57:43;;;;;;;6.40;4.90;;;;;;;13.06;68.41;99016.45;105091;1260;98265;-66
2023/04/18 09:00:11;;;;;;;7.60;6.30;;;;;;;13.43;67.58;99013.02;105215;1257;108544;-66
2023/04/18 09:02:42;;;;;;;8.40;6.60;;;;;;;13.90;68.30;99011.74;105194;1256;97855;-66
2023/04/18 09:05:20;;;;;;;9.50;5.30;;;;;;;14.38;66.41;99006.84;105277;1256;99075;-66
2023/04/18 09:07:49;;;;;;;10.70;7.10;;;;;;;14.44;64.34;99010.59;105208;1253;111772;-68
2023/04/18 09:10:29;;;;;;;10.10;4.90;;;;;;;14.13;64.21;99011.40;105067;1260;98090;-67
2023/04/18 09:12:57;;;;;;;7.90;4.50;;;;;;;13.78;63.46;99016.39;104966;1256;107570;-67
2023/04/18 09:15:27;;;;;;;9.00;5.90;;;;;;;13.52;64.37;99016.02;105125;1271;97874;-66
2023/04/18 09:17:58;;;;;;;10.90;5.70;;;;;;;13.36;64.29;99015.52;104808;1262;97891;-66
2023/04/18 09:20:33;;;;;;;;;;;;;;;13.37;64.75;99015.24;105382;1256;113403;-66
2023/04/18 09:23:03;;;;;;;6.00;4.40;;;;;;;13.62;65.13;99016.30;104972;1261;98055;-66
2023/04/18 09:25:39;;;;;;;9.70;6.20;;;;;;;13.69;64.14;99019.23;104893;1262;107552;-65
2023/04/18 09:28:23;;;;;;;9.30;6.60;;;;;;;13.55;63.95;99011.45;105227;1257;98686;-67
2023/04/18 09:30:51;;;;;;;8.70;5.50;;;;;;;13.60;63.97;99013.00;105105;1256;99095;-67
2023/04/18 09:33:28;;;;;;;10.60;6.20;;;;;;;13.50;62.42;99019.76;105264;1267;112233;-67
2023/04/18 09:35:56;;;;;;;7.40;5.40;;;;;;;13.45;62.83;99019.45;104851;1262;98568;-67
2023/04/18 09:38:41;;;;;;;6.80;5.10;;;;;;;13.43;63.67;99018.69;104856;1275;108171;-66
2023/04/18 09:41:10;;;;;;;8.90;4.90;;;;;;;13.56;63.49;99016.21;105137;1256;98007;-67
2023/04/18 09:43:38;;;;;;;7.30;5.40;;;;;;;13.63;63.17;99012.65;105218;1266;99069;-66
2023/04/18 09:46:07;;;;;;;5.90;4.60;;;;;;;13.62;62.30;99016.41;105124;1259;111277;-67
2023/04/18 09:48:34;;;;;;;5.90;3.60;;;;;;;13.80;61.06;99018.42;105133;1254;99041;-67
2023/04/18 09:51:08;;;;;;;5.70;3.90;;;;;;;14.18;59.40;99011.98;105060;1259;107835;-67
2023/04/18 09:53:40;;;;;;;6.20;3.90;;;;;;;14.56;57.94;99011.14;105200;1272;98556;-67
2023/04/18 09:56:30;;;;;;;5.90;4.60;;;;;;;14.81;56.88;99007.65;105094;1253;98056;-68
2023/04/18 09:59:09;;;;;;;8.20;4.70;;;;;;;15.21;56.28;99002.27;104996;1259;111054;-67
2023/04/18 10:01:38;;;;;;;4.70;3.80;;;;;;;15.46;55.48;99006.00;105255;1256;99320;-67
2023/04/18 10:04:07;;;;;;;8.40;4.40;;;;;;;15.23;53.64;99010.20;105199;1255;108640;-67
2023/04/18 10:06:40;;;;;;;6.50;3.90;;;;;;;14.77;54.74;99010.05;104685;1266;98092;-67
2023/04/18 10:09:09;;;;;;;7.40;4.30;;;;;;;14.36;55.88;99010.05;104857;1259;99731;-67
2023/04/18 10:11:37;;;;;;;6.30;3.80;;;;;;;14.11;56.40;99019.48;105253;1254;112134;-67
2023/04/18 10:14:11;;;;;;;6.60;3.50;;;;;;;13.84;56.97;99014.05;105147;1256;99361;-66
2023/04/18 10:16:40;;;;;;;5.20;3.60;;;;;;;13.66;57.56;99014.14;105229;1256;107269;-68
2023/04/18 10:19:34;;;;;;;5.50;4.60;;;;;;;13.65;58.17;99009.34;105276;1256;97883;-68
2023/04/18 10:22:01;;;;;;;6.80;4.00;;;;;;;13.70;57.60;99013.29;105104;1254;98035;-68
2023/04/18 10:24:47;;;;;;;8.30;4.70;;;;;;;13.76;57.23;99011.08;105272;1256;97979;-68
2023/04/18 10:27:16;;;;;;;4.50;3.60;;;;;;;13.81;56.71;99009.41;105033;1253;98743;-67
2023/04/18 10:29:53;;;;;;;5.60;3.50;;;;;;;13.79;57.03;99013.05;105122;1256;107422;-66
2023/04/18 10:32:23;;;;;;;5.50;4.50;;;;;;;13.89;56.07;99004.72;105195;1256;99287;-66
2023/04/18 10:34:53;;;;;;;6.10;3.70;;;;;;;14.14;56.28;99003.73;105180;1256;99182;-68
2023/04/18 10:37:20;;;;;;;7.00;3.20;;;;;;;14.28;54.34;98996.90;104991;1257;111705;-67
2023/04/18 10:39:59;;;;;;;8.40;3.60;;;;;;;14.41;54.32;98999.30;105148;1254;100154;-66
2023/04/18 10:42:51;;;;;;;5.60;3.30;;;;;;;14.67;53.77;98993.56;105082;1257;107615;-66
2023/04/18 10:45:19;;;;;;;7.30;3.30;;;;;;;14.71;53.05;98987.79;105192;1259;97892;-68
2023/04/18 10:47:47;;;;;;;4.60;3.50;;;;;;;14.81;52.69;98987.24;105146;1256;97983;-67
2023/04/18 10:50:15;;;;;;;7.50;4.30;;;;;;;14.99;52.67;98990.80;105136;1267;112180;-67
2023/04/18 10:52:43;;;;;;;5.20;3.80;;;;;;;15.10;52.38;98989.17;105016;1259;99196;-67
2023/04/18 10:55:25;;;;;;;4.70;3.50;;;;;;;14.94;51.17;98986.42;105072;1257;108641;-67
2023/04/18 10:57:55;;;;;;;5.30;3.40;;;;;;;14.85;51.85;98986.55;105076;1256;97896;-66
2023/04/18 11:00:24;;;;;;;4.40;3.00;;;;;;;14.92;50.52;98987.25;105163;1256;97887;-66
2023/04/18 11:02:55;;;;;;;5.70;2.50;;;;;;;15.02;50.25;98984.35;105209;1257;112146;-67
2023/04/18 11:05:25;;;;;;;8.50;3.80;;;;;;;14.98;50.70;98981.59;105248;1264;99078;-66
2023/04/18 11:07:53;;;;;;;4.40;3.50;;;;;;;14.95;50.91;98988.52;104991;1271;107591;-66
2023/04/18 11:10:23;;;;;;;6.50;3.80;;;;;;;14.88;49.83;98983.02;105299;1264;99084;-66
2023/04/18 11:12:52;;;;;;;4.60;3.20;;;;;;;14.79;49.39;98985.37;104967;1253;97967;-66
2023/04/18 11:15:21;;;;;;;3.40;2.30;;;;;;;14.82;49.82;98978.77;105243;1256;111530;-67
2023/04/18 11:18:00;;;;;;;5.30;2.90;;;;;;;14.84;49.72;98986.05;105200;1253;99198;-66
2023/04/18 11:20:29;;;;;;;3.40;2.60;;;;;;;14.80;49.97;98985.11;104794;1263;107808;-66
2023/04/18 11:22:58;;;;;;;5.70;4.10;;;;;;;14.70;50.10;98987.21;105155;1256;97887;-65
2023/04/18 11:25:39;;;;;;;6.30;3.30;;;;;;;14.77;50.81;98987.48;105247;1257;97981;-66
2023/04/18 11:28:06;;;;;;;4.30;3.20;;;;;;;14.70;50.03;98990.27;105168;1256;112188;-66